createdAt,value
2018-11-25T00:01:01.785Z,100.00
2018-11-25T00:03:31.831Z,100.00
2018-11-25T00:06:02.027Z,100.00
2018-11-25T00:08:32.643Z,100.00
2018-11-25T00:11:02.560Z,100.00
2018-11-25T00:13:32.673Z,100.00
2018-11-25T00:16:02.794Z,100.00
2018-11-25T00:18:32.805Z,100.00
2018-11-25T00:21:02.840Z,100.00
2018-11-25T00:23:33.154Z,100.00
2018-11-25T00:26:03.509Z,100.00
2018-11-25T00:28:33.719Z,100.00
2018-11-25T00:31:09.401Z,100.00
2018-11-25T00:33:35.001Z,100.00
2018-11-25T00:36:04.768Z,100.00
2018-11-25T00:38:34.917Z,100.00
2018-11-25T00:41:04.854Z,100.00
2018-11-25T00:43:34.910Z,100.00
2018-11-25T00:46:04.597Z,100.00
2018-11-25T00:48:35.195Z,100.00
2018-11-25T00:51:04.951Z,100.00
2018-11-25T00:53:36.007Z,100.00
2018-11-25T00:56:06.391Z,100.00
2018-11-25T00:58:36.837Z,100.00
2018-11-25T01:01:06.686Z,100.00
2018-11-25T01:03:36.981Z,100.00
2018-11-25T01:06:06.804Z,100.00
2018-11-25T01:08:37.124Z,100.00
2018-11-25T01:11:07.261Z,100.00
2018-11-25T01:13:37.629Z,100.00
2018-11-25T01:16:07.714Z,100.00
2018-11-25T01:18:38.032Z,100.00
2018-11-25T01:21:07.993Z,100.00
2018-11-25T01:23:38.289Z,100.00
2018-11-25T01:26:08.028Z,100.00
2018-11-25T01:28:38.420Z,100.00
2018-11-25T01:31:08.554Z,100.00
2018-11-25T01:33:39.233Z,100.00
2018-11-25T01:36:09.273Z,100.00
2018-11-25T01:38:39.677Z,100.00
2018-11-25T01:41:09.559Z,100.00
2018-11-25T01:43:39.518Z,100.00
2018-11-25T01:46:09.642Z,100.00
2018-11-25T01:48:39.878Z,100.00
2018-11-25T01:51:10.395Z,100.00
2018-11-25T01:53:40.541Z,100.00
2018-11-25T01:56:10.756Z,100.00
2018-11-25T01:58:40.794Z,100.00
2018-11-25T02:01:10.716Z,100.00
2018-11-25T02:03:40.905Z,100.00
2018-11-25T02:06:11.515Z,100.00
2018-11-25T02:08:41.322Z,100.00
2018-11-25T02:11:11.485Z,100.00
2018-11-25T02:13:41.793Z,100.00
2018-11-25T02:16:12.157Z,100.00
2018-11-25T02:18:42.661Z,100.00
2018-11-25T02:21:12.967Z,100.00
2018-11-25T02:23:42.952Z,100.00
2018-11-25T02:26:13.281Z,98.41
2018-11-25T02:28:43.678Z,97.80
2018-11-25T02:31:15.746Z,96.78
2018-11-25T02:33:46.843Z,94.25
2018-11-25T02:36:17.596Z,93.83
2018-11-25T02:38:47.676Z,92.60
2018-11-25T02:41:17.840Z,89.72
2018-11-25T02:43:48.201Z,89.26
2018-11-25T02:46:18.239Z,88.33
2018-11-25T02:48:48.315Z,87.01
2018-11-25T02:51:18.600Z,89.95
2018-11-25T02:53:50.226Z,86.26
2018-11-25T02:56:20.728Z,88.00
2018-11-25T02:58:50.985Z,85.96
2018-11-25T03:01:22.689Z,85.17
2018-11-25T03:03:53.285Z,84.53
2018-11-25T03:06:23.864Z,85.48
2018-11-25T03:08:54.040Z,81.81
2018-11-25T03:11:23.923Z,82.27
2018-11-25T03:13:54.847Z,82.05
2018-11-25T03:16:24.654Z,83.30
2018-11-25T03:18:56.033Z,80.85
2018-11-25T03:21:25.714Z,78.94
2018-11-25T03:23:56.026Z,78.75
2018-11-25T03:26:26.197Z,80.08
2018-11-25T03:28:56.433Z,79.30
2018-11-25T03:31:26.716Z,79.07
2018-11-25T03:33:57.792Z,81.38
2018-11-25T03:36:28.506Z,80.07
2018-11-25T03:38:59.240Z,80.03
2018-11-25T03:41:29.469Z,78.69
2018-11-25T03:44:00.995Z,78.38
2018-11-25T03:46:31.368Z,75.41
2018-11-25T03:49:01.795Z,75.84
2018-11-25T03:51:32.484Z,74.80
2018-11-25T03:54:02.602Z,75.49
2018-11-25T03:56:32.784Z,76.40
2018-11-25T03:59:03.110Z,76.38
2018-11-25T04:01:33.114Z,75.65
2018-11-25T04:04:03.831Z,74.46
2018-11-25T04:06:33.802Z,73.97
2018-11-25T04:09:04.363Z,73.83
2018-11-25T04:11:34.179Z,72.26
2018-11-25T04:14:04.606Z,70.83
2018-11-25T04:16:35.202Z,69.89
2018-11-25T04:19:07.006Z,69.14
2018-11-25T04:21:37.780Z,69.06
2018-11-25T04:24:07.677Z,68.20
2018-11-25T04:26:37.795Z,66.64
2018-11-25T04:29:07.875Z,65.57
2018-11-25T04:31:38.463Z,64.98
2018-11-25T04:34:08.430Z,65.42
2018-11-25T04:36:38.882Z,65.77
2018-11-25T04:39:09.490Z,64.77
2018-11-25T04:41:39.890Z,65.46
2018-11-25T04:44:10.553Z,65.53
2018-11-25T04:46:40.958Z,66.61
2018-11-25T04:49:11.086Z,64.48
2018-11-25T04:51:41.522Z,62.51
2018-11-25T04:54:15.683Z,62.77
2018-11-25T04:56:46.392Z,64.94
2018-11-25T04:59:17.277Z,64.40
2018-11-25T05:01:47.523Z,64.23
2018-11-25T05:04:17.281Z,60.49
2018-11-25T05:06:47.470Z,62.00
2018-11-25T05:09:17.473Z,63.01
2018-11-25T05:11:47.480Z,59.93
2018-11-25T05:14:17.597Z,57.93
2018-11-25T05:16:47.676Z,60.32
2018-11-25T05:19:17.421Z,61.18
2018-11-25T05:21:47.830Z,61.29
2018-11-25T05:24:17.603Z,60.33
2018-11-25T05:26:47.681Z,61.34
2018-11-25T05:29:18.549Z,60.39
2018-11-25T05:31:48.839Z,57.57
2018-11-25T05:34:18.932Z,58.58
2018-11-25T05:36:49.387Z,58.86
2018-11-25T05:39:19.670Z,55.96
2018-11-25T05:41:52.145Z,60.33
2018-11-25T05:44:23.361Z,60.34
2018-11-25T05:46:53.291Z,57.86
2018-11-25T05:49:24.535Z,59.84
2018-11-25T05:51:54.582Z,56.93
2018-11-25T05:54:25.306Z,57.13
2018-11-25T05:56:54.899Z,55.99
2018-11-25T05:59:25.403Z,55.06
2018-11-25T06:01:55.884Z,56.83
2018-11-25T06:04:26.047Z,57.62
2018-11-25T06:06:57.963Z,56.32
2018-11-25T06:09:27.759Z,56.45
2018-11-25T06:11:57.804Z,56.22
2018-11-25T06:14:27.950Z,53.73
2018-11-25T06:16:57.667Z,56.87
2018-11-25T06:19:28.006Z,56.52
2018-11-25T06:21:57.683Z,57.72
2018-11-25T06:24:27.840Z,55.69
2018-11-25T06:26:58.649Z,56.41
2018-11-25T06:29:28.170Z,55.22
2018-11-25T06:31:58.366Z,55.85
2018-11-25T06:34:28.193Z,57.21
2018-11-25T06:36:58.590Z,57.13
2018-11-25T06:39:28.413Z,55.53
2018-11-25T06:41:58.717Z,57.39
2018-11-25T06:44:28.716Z,58.81
2018-11-25T06:46:59.843Z,55.84
2018-11-25T06:49:29.608Z,55.66
2018-11-25T06:51:59.976Z,56.56
2018-11-25T06:54:30.085Z,55.38
2018-11-25T06:57:00.479Z,55.33
2018-11-25T06:59:30.498Z,55.34
2018-11-25T07:02:00.718Z,54.20
2018-11-25T07:04:30.729Z,55.39
2018-11-25T07:07:01.446Z,56.88
2018-11-25T07:09:32.174Z,57.57
2018-11-25T07:12:02.660Z,57.35
2018-11-25T07:14:32.644Z,57.11
2018-11-25T07:17:02.769Z,57.07
2018-11-25T07:19:33.458Z,55.95
2018-11-25T07:22:03.548Z,56.09
2018-11-25T07:24:33.166Z,57.03
2018-11-25T07:27:03.417Z,57.62
2018-11-25T07:29:33.761Z,58.18
2018-11-25T07:32:03.887Z,57.03
2018-11-25T07:34:34.233Z,55.62
2018-11-25T07:37:04.642Z,56.29
2018-11-25T07:39:35.400Z,55.29
2018-11-25T07:42:07.676Z,55.94
2018-11-25T07:44:37.550Z,53.27
2018-11-25T07:47:08.926Z,52.41
2018-11-25T07:49:39.249Z,54.49
2018-11-25T07:52:15.119Z,54.11
2018-11-25T07:54:46.838Z,55.50
2018-11-25T07:57:17.242Z,56.27
2018-11-25T07:59:47.836Z,56.89
2018-11-25T08:02:18.263Z,52.75
2018-11-25T08:04:48.600Z,55.34
2018-11-25T08:07:19.162Z,55.68
2018-11-25T08:09:49.621Z,54.63
2018-11-25T08:12:19.839Z,54.43
2018-11-25T08:14:49.580Z,55.92
2018-11-25T08:17:19.568Z,55.16
2018-11-25T08:19:49.389Z,56.55
2018-11-25T08:22:20.260Z,56.75
2018-11-25T08:24:50.232Z,56.27
2018-11-25T08:27:20.553Z,55.72
2018-11-25T08:29:50.476Z,55.35
2018-11-25T08:32:20.513Z,55.77
2018-11-25T08:34:50.880Z,56.65
2018-11-25T08:37:21.594Z,57.21
2018-11-25T08:39:51.995Z,55.12
2018-11-25T08:42:21.759Z,56.81
2018-11-25T08:44:52.210Z,57.38
2018-11-25T08:47:22.237Z,58.32
2018-11-25T08:49:52.989Z,58.52
2018-11-25T08:52:23.409Z,57.37
2018-11-25T08:54:54.927Z,58.50
2018-11-25T08:57:24.993Z,60.45
2018-11-25T08:59:55.564Z,59.84
2018-11-25T09:02:25.717Z,59.52
2018-11-25T09:04:56.205Z,59.53
2018-11-25T09:07:26.725Z,60.65
2018-11-25T09:09:57.163Z,61.87
2018-11-25T09:12:27.236Z,59.75
2018-11-25T09:14:58.570Z,60.78
2018-11-25T09:17:28.525Z,60.14
2018-11-25T09:19:59.996Z,58.64
2018-11-25T09:22:30.166Z,60.68
2018-11-25T09:25:00.792Z,62.04
2018-11-25T09:27:31.531Z,60.17
2018-11-25T09:30:01.604Z,62.39
2018-11-25T09:32:31.523Z,62.92
2018-11-25T09:35:02.550Z,61.71
2018-11-25T09:37:32.800Z,62.63
2018-11-25T09:40:02.637Z,63.49
2018-11-25T09:42:33.286Z,63.56
2018-11-25T09:45:03.229Z,64.18
2018-11-25T09:47:33.913Z,63.46
2018-11-25T09:50:03.925Z,64.72
2018-11-25T09:52:36.165Z,65.62
2018-11-25T09:55:07.195Z,65.91
2018-11-25T09:57:37.364Z,66.52
2018-11-25T10:00:07.363Z,68.46
2018-11-25T10:02:37.430Z,68.13
2018-11-25T10:05:07.880Z,69.50
2018-11-25T10:07:37.953Z,70.58
2018-11-25T10:10:07.762Z,70.29
2018-11-25T10:12:37.532Z,70.84
2018-11-25T10:15:07.574Z,72.82
2018-11-25T10:17:37.805Z,73.36
2018-11-25T10:20:07.485Z,73.49
2018-11-25T10:22:37.282Z,74.47
2018-11-25T10:25:12.274Z,75.53
2018-11-25T10:27:42.886Z,75.84
2018-11-25T10:30:12.690Z,77.09
2018-11-25T10:32:43.198Z,78.42
2018-11-25T10:35:13.007Z,79.45
2018-11-25T10:43:02.058Z,82.57
2018-11-25T10:45:32.282Z,84.91
2018-11-25T10:48:03.000Z,85.37
2018-11-25T10:50:33.271Z,86.96
2018-11-25T10:53:04.000Z,88.16
2018-11-25T10:55:34.083Z,88.60
2018-11-25T10:58:04.594Z,90.61
2018-11-25T11:00:34.609Z,90.66
2018-11-25T11:03:04.404Z,91.25
2018-11-25T11:05:34.122Z,91.91
2018-11-25T11:08:04.688Z,92.57
2018-11-25T11:10:34.884Z,91.60
2018-11-25T11:13:05.295Z,92.56
2018-11-25T11:15:35.370Z,93.46
2018-11-25T11:18:05.358Z,94.39
2018-11-25T11:20:35.154Z,94.43
2018-11-25T11:23:05.371Z,94.96
2018-11-25T11:25:35.352Z,96.50
2018-11-25T11:28:04.979Z,96.19
2018-11-25T11:30:35.204Z,97.30
2018-11-25T11:33:05.606Z,98.71
2018-11-25T11:35:35.850Z,99.02
2018-11-25T11:38:05.921Z,99.39
2018-11-25T11:40:35.398Z,99.61
2018-11-25T11:43:05.759Z,99.79
2018-11-25T11:45:35.721Z,100.00
2018-11-25T11:48:05.774Z,100.00
2018-11-25T11:50:35.967Z,100.00
2018-11-25T11:53:05.907Z,99.96
2018-11-25T11:55:36.308Z,99.98
2018-11-25T11:58:06.342Z,100.00
2018-11-25T12:00:36.670Z,100.00
2018-11-25T12:03:06.876Z,100.00
2018-11-25T12:05:37.276Z,100.00
2018-11-25T12:08:07.632Z,100.00
2018-11-25T12:10:37.842Z,100.00
2018-11-25T12:13:08.886Z,100.00
2018-11-25T12:15:38.878Z,100.00
2018-11-25T12:18:08.828Z,100.00
2018-11-25T12:20:38.804Z,100.00
2018-11-25T12:23:08.846Z,100.00
2018-11-25T12:25:39.215Z,100.00
2018-11-25T12:28:08.988Z,100.00
2018-11-25T12:30:38.952Z,100.00
2018-11-25T12:33:09.435Z,100.00
2018-11-25T12:35:39.531Z,100.00
2018-11-25T12:38:09.770Z,100.00
2018-11-25T12:40:40.203Z,100.00
2018-11-25T12:43:10.701Z,100.00
2018-11-25T12:45:40.450Z,100.00
2018-11-25T12:48:10.952Z,100.00
2018-11-25T12:50:41.440Z,100.00
2018-11-25T12:53:11.837Z,100.00
2018-11-25T12:55:43.291Z,100.00
2018-11-25T12:58:13.759Z,100.00
2018-11-25T13:00:43.873Z,100.00
2018-11-25T13:03:14.232Z,100.00
2018-11-25T13:05:46.249Z,100.00
2018-11-25T13:08:15.724Z,100.00
2018-11-25T13:10:45.429Z,100.00
2018-11-25T13:13:15.871Z,100.00
2018-11-25T13:15:45.805Z,100.00
2018-11-25T13:18:16.365Z,100.00
2018-11-25T13:20:46.291Z,100.00
2018-11-25T13:23:16.281Z,100.00
2018-11-25T13:25:46.905Z,100.00
2018-11-25T13:28:17.350Z,100.00
2018-11-25T13:30:46.994Z,100.00
2018-11-25T13:33:17.677Z,100.00
2018-11-25T13:35:48.150Z,100.00
2018-11-25T13:38:18.557Z,100.00
2018-11-25T13:40:49.528Z,100.00
2018-11-25T13:43:20.653Z,100.00
2018-11-25T13:45:51.079Z,100.00
2018-11-25T13:48:21.813Z,100.00
2018-11-25T13:50:51.852Z,100.00
2018-11-25T13:53:21.959Z,100.00
2018-11-25T13:55:51.563Z,100.00
2018-11-25T13:58:21.896Z,100.00
2018-11-25T14:00:52.823Z,100.00
2018-11-25T14:03:23.316Z,100.00
2018-11-25T14:05:54.927Z,100.00
2018-11-25T14:08:25.287Z,100.00
2018-11-25T14:10:56.042Z,100.00
2018-11-25T14:13:26.394Z,100.00
2018-11-25T14:15:56.961Z,100.00
2018-11-25T14:18:26.719Z,100.00
2018-11-25T14:20:57.418Z,100.00
2018-11-25T14:23:27.859Z,100.00
2018-11-25T14:25:58.091Z,100.00
2018-11-25T14:28:28.798Z,100.00
2018-11-25T14:30:58.637Z,100.00
2018-11-25T14:33:29.380Z,100.00
2018-11-25T14:35:59.309Z,100.00
2018-11-25T14:38:30.850Z,100.00
2018-11-25T14:41:01.445Z,100.00
2018-11-25T14:43:31.047Z,100.00
2018-11-25T14:46:01.346Z,100.00
2018-11-25T14:48:30.822Z,100.00
2018-11-25T14:51:00.769Z,100.00
2018-11-25T14:53:31.790Z,100.00
2018-11-25T14:56:04.260Z,100.00
2018-11-25T14:58:34.279Z,100.00
2018-11-25T15:01:05.945Z,100.00
2018-11-25T15:03:36.209Z,100.00
2018-11-25T15:06:06.172Z,100.00
2018-11-25T15:08:36.519Z,100.00
2018-11-25T15:11:06.645Z,100.00
2018-11-25T15:13:36.642Z,100.00
2018-11-25T15:16:06.885Z,100.00
2018-11-25T15:18:37.294Z,100.00
2018-11-25T15:21:07.597Z,100.00
2018-11-25T15:23:38.624Z,100.00
2018-11-25T15:26:08.480Z,100.00
2018-11-25T15:28:38.835Z,100.00
2018-11-25T15:33:52.328Z,100.00
2018-11-25T15:36:22.237Z,100.00
2018-11-25T15:38:53.118Z,100.00
2018-11-25T15:41:23.076Z,100.00
2018-11-25T15:43:53.284Z,100.00
2018-11-25T15:46:23.198Z,100.00
2018-11-25T15:48:53.754Z,100.00
2018-11-25T15:51:23.890Z,100.00
2018-11-25T15:53:53.881Z,100.00
2018-11-25T15:56:24.340Z,100.00
2018-11-25T15:58:54.546Z,100.00
2018-11-25T16:01:24.567Z,100.00
2018-11-25T16:03:54.347Z,100.00
2018-11-25T16:06:24.405Z,100.00
2018-11-25T16:08:54.526Z,100.00
2018-11-25T16:11:24.375Z,100.00
2018-11-25T16:13:54.448Z,100.00
2018-11-25T16:16:24.731Z,100.00
2018-11-25T16:18:55.037Z,100.00
2018-11-25T16:21:25.205Z,100.00
2018-11-25T16:23:55.036Z,100.00
2018-11-25T16:26:25.728Z,100.00
2018-11-25T16:28:55.469Z,100.00
2018-11-25T16:31:25.688Z,100.00
2018-11-25T16:33:55.286Z,100.00
2018-11-25T16:36:25.329Z,100.00
2018-11-25T16:38:55.426Z,100.00
2018-11-25T16:41:25.565Z,100.00
2018-11-25T16:43:55.591Z,100.00
2018-11-25T16:46:26.050Z,100.00
2018-11-25T16:48:56.070Z,100.00
2018-11-25T16:51:26.399Z,100.00
2018-11-25T16:53:55.836Z,100.00
2018-11-25T16:56:25.667Z,100.00
2018-11-25T16:58:55.353Z,100.00
2018-11-25T17:01:25.593Z,100.00
2018-11-25T17:03:55.427Z,100.00
2018-11-25T17:06:27.196Z,100.00
2018-11-25T17:08:57.065Z,100.00
2018-11-25T17:11:27.053Z,100.00
2018-11-25T17:13:56.842Z,100.00
2018-11-25T17:16:27.194Z,100.00
2018-11-25T17:18:57.032Z,100.00
2018-11-25T17:21:27.360Z,100.00
2018-11-25T17:23:56.995Z,100.00
2018-11-25T17:26:26.676Z,100.00
2018-11-25T17:28:57.014Z,100.00
2018-11-25T17:31:26.925Z,100.00
2018-11-25T17:33:56.728Z,100.00
2018-11-25T17:36:26.719Z,100.00
2018-11-25T17:38:56.563Z,100.00
2018-11-25T17:41:28.324Z,100.00
2018-11-25T17:43:58.440Z,100.00
2018-11-25T17:46:28.315Z,100.00
2018-11-25T17:48:58.161Z,100.00
2018-11-25T17:51:28.519Z,100.00
2018-11-25T17:53:58.567Z,100.00
2018-11-25T17:56:28.509Z,100.00
2018-11-25T17:58:57.999Z,100.00
2018-11-25T18:01:28.041Z,100.00
2018-11-25T18:03:58.076Z,100.00
2018-11-25T18:06:28.029Z,100.00
2018-11-25T18:08:58.564Z,100.00
2018-11-25T18:11:28.836Z,100.00
2018-11-25T18:13:58.483Z,100.00
2018-11-25T18:16:28.803Z,100.00
2018-11-25T18:18:58.677Z,100.00
2018-11-25T18:21:28.807Z,100.00
2018-11-25T18:23:59.041Z,100.00
2018-11-25T18:26:29.022Z,100.00
2018-11-25T18:28:59.229Z,100.00
2018-11-25T18:31:28.953Z,100.00
2018-11-25T18:33:58.784Z,100.00
2018-11-25T18:36:28.801Z,100.00
2018-11-25T18:38:58.586Z,100.00
2018-11-25T18:41:28.637Z,100.00
2018-11-25T18:43:59.052Z,100.00
2018-11-25T18:46:29.760Z,100.00
2018-11-25T18:49:00.307Z,100.00
2018-11-25T18:51:30.882Z,100.00
2018-11-25T18:54:01.607Z,100.00
2018-11-25T18:56:31.486Z,100.00
2018-11-25T18:59:01.792Z,100.00
2018-11-25T19:01:31.511Z,100.00
2018-11-25T19:04:01.641Z,100.00
2018-11-25T19:06:31.239Z,100.00
2018-11-25T19:09:02.078Z,100.00
2018-11-25T19:11:32.163Z,100.00
2018-11-25T19:14:02.564Z,100.00
2018-11-25T19:16:32.024Z,100.00
2018-11-25T19:19:02.442Z,100.00
2018-11-25T19:21:31.988Z,100.00
2018-11-25T19:24:01.444Z,100.00
2018-11-25T19:26:31.675Z,100.00
2018-11-25T19:29:01.440Z,100.00
2018-11-25T19:31:31.684Z,100.00
2018-11-25T19:34:01.111Z,100.00
2018-11-25T19:36:31.116Z,100.00
2018-11-25T19:39:00.635Z,100.00
2018-11-25T19:41:30.882Z,100.00
2018-11-25T19:44:01.597Z,100.00
2018-11-25T19:46:31.780Z,100.00
2018-11-25T19:49:02.036Z,100.00
2018-11-25T19:51:32.307Z,100.00
2018-11-25T19:54:02.242Z,100.00
2018-11-25T19:56:32.180Z,100.00
2018-11-25T19:59:02.612Z,100.00
2018-11-25T20:01:32.961Z,100.00
2018-11-25T20:04:03.570Z,100.00
2018-11-25T20:06:34.111Z,100.00
2018-11-25T20:09:05.276Z,100.00
2018-11-25T20:11:35.382Z,100.00
2018-11-25T20:14:05.629Z,100.00
2018-11-25T20:16:35.877Z,100.00
2018-11-25T20:19:05.949Z,100.00
2018-11-25T20:21:36.046Z,100.00
2018-11-25T20:24:05.993Z,100.00
2018-11-25T20:26:36.509Z,100.00
2018-11-25T20:29:06.554Z,100.00
2018-11-25T20:31:36.224Z,100.00
2018-11-25T20:34:06.507Z,100.00
2018-11-25T20:36:36.043Z,100.00
2018-11-25T20:39:06.563Z,100.00
2018-11-25T20:41:36.161Z,100.00
2018-11-25T20:44:06.307Z,100.00
2018-11-25T20:46:36.005Z,100.00
2018-11-25T20:49:05.841Z,100.00
2018-11-25T20:51:35.635Z,100.00
2018-11-25T20:54:06.723Z,100.00
2018-11-25T20:56:36.962Z,100.00
2018-11-25T20:59:07.431Z,100.00
2018-11-25T21:01:37.646Z,100.00
2018-11-25T21:04:07.722Z,100.00
2018-11-25T21:06:37.752Z,100.00
2018-11-25T21:09:08.182Z,100.00
2018-11-25T21:11:38.643Z,100.00
2018-11-25T21:14:08.406Z,100.00
2018-11-25T21:16:38.757Z,100.00
2018-11-25T21:19:08.683Z,100.00
2018-11-25T21:21:39.227Z,100.00
2018-11-25T21:24:08.956Z,100.00
2018-11-25T21:26:39.144Z,100.00
2018-11-25T21:29:09.465Z,100.00
2018-11-25T21:31:39.719Z,100.00
2018-11-25T21:34:09.784Z,100.00
2018-11-25T21:36:40.637Z,100.00
2018-11-25T21:39:10.647Z,100.00
2018-11-25T21:41:41.122Z,100.00
2018-11-25T21:44:11.004Z,100.00
2018-11-25T21:46:41.127Z,100.00
2018-11-25T21:49:11.000Z,100.00
2018-11-25T21:51:41.067Z,100.00
2018-11-25T21:54:11.246Z,100.00
2018-11-25T21:56:41.275Z,100.00
2018-11-25T21:59:11.363Z,100.00
2018-11-25T22:01:41.923Z,100.00
2018-11-25T22:04:12.033Z,100.00
2018-11-25T22:06:42.288Z,100.00
2018-11-25T22:09:12.722Z,100.00
2018-11-25T22:11:42.805Z,100.00
2018-11-25T22:14:12.807Z,100.00
2018-11-25T22:16:42.236Z,100.00
2018-11-25T22:19:12.645Z,100.00
2018-11-25T22:21:42.886Z,100.00
2018-11-25T22:24:13.275Z,100.00
2018-11-25T22:26:43.663Z,100.00
2018-11-25T22:29:13.583Z,100.00
2018-11-25T22:31:43.568Z,100.00
2018-11-25T22:34:14.081Z,100.00
2018-11-25T22:36:44.848Z,100.00
2018-11-25T22:39:14.774Z,100.00
2018-11-25T22:41:44.775Z,100.00
2018-11-25T22:44:14.842Z,100.00
2018-11-25T22:46:44.728Z,100.00
2018-11-25T22:49:14.805Z,100.00
2018-11-25T22:51:44.844Z,100.00
2018-11-25T22:54:15.189Z,100.00
2018-11-25T22:56:45.147Z,100.00
2018-11-25T22:59:14.875Z,100.00
2018-11-25T23:01:44.967Z,100.00
2018-11-25T23:04:14.586Z,100.00
2018-11-25T23:06:44.801Z,100.00
2018-11-25T23:09:15.350Z,100.00
2018-11-25T23:11:45.712Z,100.00
2018-11-25T23:14:15.507Z,100.00
2018-11-25T23:16:45.760Z,100.00
2018-11-25T23:19:15.837Z,100.00
2018-11-25T23:21:45.959Z,100.00
2018-11-25T23:24:16.001Z,100.00
2018-11-25T23:26:46.908Z,100.00
2018-11-25T23:29:16.959Z,100.00
2018-11-25T23:31:46.806Z,100.00
2018-11-25T23:34:16.853Z,100.00
2018-11-25T23:36:46.848Z,100.00
2018-11-25T23:39:17.547Z,100.00
2018-11-25T23:41:47.522Z,100.00
2018-11-25T23:44:17.325Z,100.00
2018-11-25T23:46:47.480Z,100.00
2018-11-25T23:49:17.371Z,100.00
2018-11-25T23:51:47.365Z,100.00
2018-11-25T23:54:17.310Z,100.00
2018-11-25T23:56:47.681Z,100.00
2018-11-25T23:59:17.320Z,100.00
